createdAt,value
2023-04-18T00:00:10.288Z,55.00
2023-04-18T00:02:41.342Z,55.00
2023-04-18T00:05:08.794Z,55.00
2023-04-18T00:07:36.016Z,55.30
2023-04-18T00:10:04.239Z,55.30
2023-04-18T00:19:56.348Z,55.30
2023-04-18T00:24:54.301Z,55.70
2023-04-18T00:27:22.031Z,55.50
2023-04-18T00:32:17.427Z,55.40
2023-04-18T00:34:45.233Z,55.40
2023-04-18T00:42:06.767Z,55.40
2023-04-18T00:47:01.036Z,55.30
2023-04-18T00:49:28.082Z,55.20
2023-04-18T00:51:57.925Z,55.20
2023-04-18T00:59:21.047Z,55.20
2023-04-18T01:09:14.060Z,55.20
2023-04-18T01:14:09.308Z,55.10
2023-04-18T01:16:37.205Z,55.00
2023-04-18T01:19:05.121Z,55.00
2023-04-18T01:21:37.688Z,55.10
2023-04-18T01:24:08.677Z,54.90
2023-04-18T01:31:39.340Z,55.20
2023-04-18T01:34:07.922Z,55.10
2023-04-18T01:36:38.225Z,55.10
2023-04-18T01:41:32.898Z,55.30
2023-04-18T01:44:00.574Z,55.50
2023-04-18T01:46:28.154Z,55.40
2023-04-18T01:51:23.207Z,55.40
2023-04-18T01:53:50.536Z,55.40
2023-04-18T02:06:08.230Z,55.40
2023-04-18T02:13:32.949Z,55.50
2023-04-18T02:18:27.439Z,55.80
2023-04-18T02:35:40.741Z,56.10
2023-04-18T02:40:36.178Z,56.10
2023-04-18T02:58:00.399Z,56.60
2023-04-18T03:00:56.210Z,56.40
2023-04-18T03:08:55.508Z,56.30
2023-04-18T03:13:50.734Z,56.20
2023-04-18T03:18:45.726Z,56.30
2023-04-18T03:23:42.625Z,56.20
2023-04-18T03:33:39.312Z,56.20
2023-04-18T03:36:11.231Z,56.20
2023-04-18T03:38:40.537Z,56.20
2023-04-18T03:41:07.825Z,56.20
2023-04-18T03:51:06.800Z,56.00
2023-04-18T03:53:33.915Z,56.10
2023-04-18T03:56:00.755Z,56.20
2023-04-18T03:58:42.331Z,56.20
2023-04-18T04:06:06.511Z,56.60
2023-04-18T04:08:34.362Z,56.70
2023-04-18T04:29:07.284Z,57.60
2023-04-18T04:36:33.303Z,57.90
2023-04-18T04:41:53.468Z,57.90
2023-04-18T04:49:28.120Z,57.90
2023-04-18T05:06:44.896Z,58.00
2023-04-18T05:11:39.498Z,58.10
2023-04-18T05:26:24.348Z,58.80
2023-04-18T05:28:51.440Z,58.80
2023-04-18T05:48:29.337Z,59.30
2023-04-18T05:53:23.729Z,59.60
2023-04-18T05:55:50.689Z,59.50
2023-04-18T06:03:13.116Z,59.40
2023-04-18T06:05:41.125Z,59.50
2023-04-18T06:15:35.101Z,59.40
2023-04-18T06:40:12.386Z,59.50
2023-04-18T06:42:39.259Z,59.40
2023-04-18T07:09:40.348Z,59.30
2023-04-18T07:19:29.301Z,59.00
2023-04-18T07:26:53.786Z,58.90
2023-04-18T07:46:36.847Z,58.90
2023-04-18T07:51:31.848Z,59.00
2023-04-18T07:53:59.653Z,59.10
2023-04-18T07:56:27.142Z,59.30
2023-04-18T08:01:24.597Z,59.40
2023-04-18T08:06:23.753Z,59.10
2023-04-18T08:11:18.114Z,59.20
2023-04-18T08:16:13.149Z,59.20
2023-04-18T08:18:41.216Z,59.30
2023-04-18T08:28:29.882Z,59.70
2023-04-18T08:38:19.544Z,59.80
2023-04-18T08:40:47.266Z,59.80
2023-04-18T08:43:15.367Z,59.80
2023-04-18T08:45:43.632Z,59.90
2023-04-18T08:48:16.761Z,59.90
2023-04-18T08:50:45.028Z,59.80
2023-04-18T09:12:55.356Z,59.90
2023-04-18T09:15:26.747Z,59.80
2023-04-18T09:17:56.368Z,59.70
2023-04-18T09:20:34.525Z,59.50
2023-04-18T09:23:10.492Z,59.10
2023-04-18T09:28:28.930Z,58.80
2023-04-18T09:30:57.734Z,58.80
2023-04-18T09:33:29.618Z,58.90
2023-04-18T09:36:16.236Z,59.00
2023-04-18T09:38:43.180Z,59.00
2023-04-18T09:41:11.631Z,59.00
2023-04-18T09:46:07.314Z,59.00
2023-04-18T09:51:07.499Z,59.00
2023-04-18T09:53:44.457Z,59.00
2023-04-18T09:56:27.225Z,59.10
2023-04-18T09:59:06.177Z,59.20
2023-04-18T10:01:34.712Z,59.20
2023-04-18T10:04:04.398Z,59.20
2023-04-18T10:06:34.424Z,59.30
2023-04-18T10:09:04.270Z,59.10
2023-04-18T10:11:31.888Z,59.00
2023-04-18T10:14:03.525Z,59.00
2023-04-18T10:19:23.758Z,58.80
2023-04-18T10:21:58.428Z,58.60
2023-04-18T10:24:53.725Z,58.50
2023-04-18T10:27:49.044Z,58.30
2023-04-18T10:30:17.238Z,58.20
2023-04-18T10:32:48.892Z,58.20
2023-04-18T10:37:59.340Z,58.40
2023-04-18T10:40:34.273Z,58.70
2023-04-18T10:45:32.543Z,58.70
2023-04-18T10:48:39.418Z,58.70
2023-04-18T10:51:21.979Z,58.60
2023-04-18T10:53:53.970Z,58.60
2023-04-18T10:56:20.927Z,58.20
2023-04-18T10:58:51.538Z,58.00
2023-04-18T11:01:32.432Z,58.00
2023-04-18T11:04:00.343Z,57.00
2023-04-18T11:06:27.759Z,57.60
2023-04-18T11:09:12.430Z,57.50
2023-04-18T11:11:39.865Z,57.40
2023-04-18T11:14:06.765Z,57.30
2023-04-18T11:16:34.495Z,57.20
2023-04-18T11:19:17.166Z,57.20
2023-04-18T11:21:44.058Z,57.20
2023-04-18T11:24:11.020Z,57.20
2023-04-18T11:26:38.744Z,55.10
2023-04-18T11:29:06.585Z,56.80
2023-04-18T11:34:02.287Z,56.30
2023-04-18T11:36:29.186Z,56.20
2023-04-18T11:38:56.600Z,56.10
2023-04-18T11:41:23.476Z,56.10
2023-04-18T11:43:50.579Z,56.10
2023-04-18T11:46:17.551Z,56.30
2023-04-18T11:51:38.294Z,56.30
2023-04-18T11:54:05.458Z,56.30
2023-04-18T11:56:34.595Z,56.20
2023-04-18T11:59:09.506Z,56.20
2023-04-18T12:01:36.353Z,56.40
2023-04-18T12:04:05.435Z,57.00
2023-04-18T12:06:49.029Z,56.80
2023-04-18T12:09:17.198Z,56.00
2023-04-18T12:11:44.261Z,56.30
2023-04-18T12:14:21.887Z,55.80
2023-04-18T12:16:50.332Z,54.90
2023-04-18T12:19:17.321Z,55.10
2023-04-18T12:21:57.087Z,54.80
2023-04-18T12:24:25.154Z,56.50
2023-04-18T12:26:52.688Z,54.40
2023-04-18T12:29:19.632Z,54.30
2023-04-18T12:31:47.555Z,54.00
2023-04-18T12:34:14.764Z,53.60
2023-04-18T12:36:42.513Z,53.20
2023-04-18T12:39:10.139Z,53.40
2023-04-18T12:41:37.008Z,52.80
2023-04-18T12:44:04.090Z,53.10
2023-04-18T12:46:31.508Z,51.50
2023-04-18T12:48:58.524Z,52.90
2023-04-18T12:51:26.588Z,53.00
2023-04-18T12:53:53.565Z,53.00
2023-04-18T12:56:21.069Z,53.50
2023-04-18T12:58:47.885Z,54.00
2023-04-18T13:01:15.233Z,53.80
2023-04-18T13:03:42.198Z,53.70
2023-04-18T13:06:09.631Z,55.60
2023-04-18T13:08:37.544Z,56.00
2023-04-18T13:11:04.524Z,55.60
2023-04-18T13:13:31.883Z,54.80
2023-04-18T13:15:59.772Z,53.00
2023-04-18T13:20:53.934Z,52.00
2023-04-18T13:25:48.207Z,51.40
2023-04-18T13:33:10.622Z,51.10
2023-04-18T13:38:04.736Z,50.80
2023-04-18T13:47:54.837Z,52.80
2023-04-18T13:50:23.045Z,52.10
2023-04-18T13:52:51.878Z,52.20
2023-04-18T13:55:19.816Z,52.80
2023-04-18T13:57:46.716Z,52.70
2023-04-18T14:00:14.368Z,51.70
2023-04-18T14:02:41.600Z,50.70
2023-04-18T14:05:09.263Z,49.80
2023-04-18T14:07:38.227Z,49.20
2023-04-18T14:10:05.923Z,48.50
2023-04-18T14:12:32.749Z,47.60
2023-04-18T14:14:59.617Z,47.10
2023-04-18T14:17:26.476Z,46.70
2023-04-18T14:19:53.288Z,46.50
2023-04-18T14:22:20.102Z,47.00
2023-04-18T14:24:46.961Z,47.30
2023-04-18T14:27:13.797Z,47.90
2023-04-18T14:29:41.123Z,48.60
2023-04-18T14:32:08.039Z,48.70
2023-04-18T14:34:36.633Z,49.70
2023-04-18T14:37:04.381Z,48.50
2023-04-18T14:39:31.185Z,48.80
2023-04-18T14:41:58.025Z,48.20
2023-04-18T14:44:24.833Z,47.40
2023-04-18T14:46:51.683Z,46.70
2023-04-18T14:49:18.583Z,45.80
2023-04-18T14:51:45.503Z,45.00
2023-04-18T14:54:12.334Z,44.20
2023-04-18T14:56:39.233Z,43.90
2023-04-18T14:59:06.198Z,43.50
2023-04-18T15:01:33.101Z,43.40
2023-04-18T15:04:00.167Z,43.30
2023-04-18T15:06:27.310Z,43.20
2023-04-18T15:08:54.140Z,43.50
2023-04-18T15:11:21.020Z,43.60
2023-04-18T15:13:47.960Z,43.40
2023-04-18T15:16:14.897Z,43.40
2023-04-18T15:18:41.758Z,43.60
2023-04-18T15:21:08.634Z,43.60
2023-04-18T15:28:31.208Z,43.00
2023-04-18T15:30:58.583Z,45.80
2023-04-18T15:35:54.830Z,46.80
2023-04-18T15:38:22.139Z,46.90
2023-04-18T15:40:48.962Z,46.80
2023-04-18T15:43:17.285Z,47.50
2023-04-18T15:45:44.580Z,47.40
2023-04-18T15:48:13.242Z,46.70
2023-04-18T15:50:41.944Z,45.40
2023-04-18T15:53:09.071Z,44.30
2023-04-18T15:55:36.130Z,43.30
2023-04-18T15:58:02.976Z,42.90
2023-04-18T16:00:29.830Z,42.70
2023-04-18T16:02:56.728Z,42.70
2023-04-18T16:05:24.085Z,42.50
2023-04-18T16:07:52.377Z,42.60
2023-04-18T16:10:19.270Z,42.60
2023-04-18T16:12:46.181Z,42.90
2023-04-18T16:15:13.491Z,43.10
2023-04-18T16:17:40.461Z,43.30
2023-04-18T16:20:08.994Z,43.00
2023-04-18T16:22:36.547Z,43.10
2023-04-18T16:25:04.360Z,43.10
2023-04-18T16:27:31.231Z,41.00
2023-04-18T16:29:58.092Z,43.10
2023-04-18T16:34:52.332Z,43.50
2023-04-18T16:37:19.212Z,43.90
2023-04-18T16:39:46.052Z,44.20
2023-04-18T16:42:15.369Z,44.40
2023-04-18T16:44:42.698Z,44.70
2023-04-18T16:47:09.641Z,45.20
2023-04-18T16:52:04.456Z,44.50
2023-04-18T16:54:31.425Z,44.90
2023-04-18T16:56:58.322Z,44.00
2023-04-18T16:59:25.230Z,43.60
2023-04-18T17:01:52.078Z,43.10
2023-04-18T17:04:19.535Z,43.00
2023-04-18T17:06:46.692Z,42.90
2023-04-18T17:11:42.114Z,42.60
2023-04-18T17:14:09.162Z,42.60
2023-04-18T17:16:38.560Z,42.50
2023-04-18T17:19:06.310Z,42.40
2023-04-18T17:21:34.635Z,42.50
2023-04-18T17:24:04.333Z,42.60
2023-04-18T17:33:54.503Z,43.20
2023-04-18T17:36:21.405Z,43.30
2023-04-18T17:38:51.229Z,43.50
2023-04-18T17:41:20.279Z,43.50
2023-04-18T17:43:47.717Z,43.50
2023-04-18T17:46:17.341Z,43.80
2023-04-18T17:51:11.512Z,44.00
2023-04-18T18:01:00.446Z,44.70
2023-04-18T18:03:27.655Z,45.20
2023-04-18T18:05:57.441Z,45.30
2023-04-18T18:08:24.506Z,45.90
2023-04-18T18:10:51.369Z,45.70
2023-04-18T18:13:18.187Z,46.20
2023-04-18T18:15:45.102Z,46.10
2023-04-18T18:18:26.334Z,46.30
2023-04-18T18:20:53.152Z,46.70
2023-04-18T18:23:19.926Z,46.60
2023-04-18T18:25:46.765Z,47.10
2023-04-18T18:28:13.710Z,46.70
2023-04-18T18:30:40.569Z,46.90
2023-04-18T18:33:07.471Z,46.90
2023-04-18T18:35:35.026Z,47.00
2023-04-18T18:38:01.978Z,47.00
2023-04-18T18:40:29.086Z,47.20
2023-04-18T18:42:56.843Z,47.30
2023-04-18T18:45:23.842Z,47.50
2023-04-18T18:47:51.129Z,47.60
2023-04-18T18:50:18.348Z,47.80
2023-04-18T18:52:45.456Z,48.00
2023-04-18T18:55:12.479Z,48.20
2023-04-18T18:57:39.688Z,48.20
2023-04-18T19:00:11.194Z,48.30
2023-04-18T19:02:39.645Z,48.40
2023-04-18T19:05:07.168Z,48.50
2023-04-18T19:10:01.856Z,48.60
2023-04-18T19:12:29.323Z,48.80
2023-04-18T19:14:56.400Z,48.70
2023-04-18T19:19:52.981Z,48.90
2023-04-18T19:22:19.872Z,49.10
2023-04-18T19:24:47.174Z,49.10
2023-04-18T19:27:14.189Z,49.10
2023-04-18T19:29:41.253Z,49.30
2023-04-18T19:32:08.803Z,49.30
2023-04-18T19:34:36.401Z,49.50
2023-04-18T19:37:03.771Z,49.50
2023-04-18T19:39:30.603Z,49.70
2023-04-18T19:44:24.706Z,49.80
2023-04-18T19:46:51.600Z,49.80
2023-04-18T19:49:18.955Z,49.90
2023-04-18T19:51:45.912Z,50.00
2023-04-18T19:54:13.429Z,50.00
2023-04-18T19:56:40.922Z,50.10
2023-04-18T19:59:07.931Z,50.20
2023-04-18T20:01:35.241Z,50.30
2023-04-18T20:04:02.284Z,50.40
2023-04-18T20:08:56.807Z,50.70
2023-04-18T20:11:24.291Z,50.80
2023-04-18T20:13:55.968Z,51.00
2023-04-18T20:16:23.735Z,51.00
2023-04-18T20:18:51.942Z,51.10
2023-04-18T20:21:20.348Z,51.20
2023-04-18T20:23:47.282Z,51.20
2023-04-18T20:28:41.421Z,51.40
2023-04-18T20:31:08.399Z,51.50
2023-04-18T20:33:36.505Z,51.60
2023-04-18T20:36:04.594Z,51.80
2023-04-18T20:38:31.434Z,51.80
2023-04-18T20:43:26.036Z,51.80
2023-04-18T20:48:25.590Z,51.90
2023-04-18T20:50:52.654Z,51.90
2023-04-18T20:53:21.085Z,52.00
2023-04-18T20:55:48.840Z,52.10
2023-04-18T20:58:16.216Z,52.10
2023-04-18T21:03:14.459Z,52.20
2023-04-18T21:05:45.599Z,52.20
2023-04-18T21:08:13.011Z,52.40
2023-04-18T21:10:39.975Z,52.30
2023-04-18T21:13:06.955Z,52.30
2023-04-18T21:15:35.569Z,52.50
2023-04-18T21:18:04.957Z,52.60
2023-04-18T21:27:56.208Z,52.90
2023-04-18T21:32:51.604Z,52.80
2023-04-18T21:42:44.606Z,53.00
2023-04-18T21:45:11.954Z,53.00
2023-04-18T21:52:34.452Z,53.30
2023-04-18T21:59:57.895Z,53.20
2023-04-18T22:02:25.950Z,53.20
2023-04-18T22:07:20.145Z,53.10
2023-04-18T22:09:47.020Z,53.20
2023-04-18T22:12:14.369Z,53.20
2023-04-18T22:14:42.477Z,53.20
2023-04-18T22:22:04.066Z,53.10
2023-04-18T22:24:30.849Z,53.30
2023-04-18T22:29:24.945Z,53.50
2023-04-18T22:34:18.949Z,53.40
2023-04-18T22:36:45.814Z,53.70
2023-04-18T22:41:39.908Z,53.50
2023-04-18T22:44:06.791Z,53.50
2023-04-18T22:49:01.119Z,53.70
2023-04-18T22:51:28.738Z,53.90
2023-04-18T22:53:56.536Z,53.90
2023-04-18T23:01:18.537Z,53.80
2023-04-18T23:06:13.370Z,53.70
2023-04-18T23:11:07.503Z,53.80
2023-04-18T23:18:30.135Z,53.90
2023-04-18T23:20:57.251Z,54.00
2023-04-18T23:23:24.096Z,54.00
2023-04-18T23:25:51.076Z,54.00
2023-04-18T23:28:18.339Z,54.00
2023-04-18T23:30:45.211Z,54.00
2023-04-18T23:38:06.606Z,54.00
2023-04-18T23:40:33.398Z,54.00
2023-04-18T23:43:01.094Z,54.00
2023-04-18T23:55:20.101Z,54.30
2023-04-18T23:57:46.916Z,54.30
